sensor_id;sensor_type;location;lat;lon;timestamp;temperature;humidity
10390;DHT22;5241;47.830;12.972;2023-05-10T00:01:40;14.50;99.90
10390;DHT22;5241;47.830;12.972;2023-05-10T00:04:05;14.40;99.90
10390;DHT22;5241;47.830;12.972;2023-05-10T00:06:31;14.40;99.90
10390;DHT22;5241;47.830;12.972;2023-05-10T00:08:57;14.30;99.90
10390;DHT22;5241;47.830;12.972;2023-05-10T00:11:22;14.20;99.90
10390;DHT22;5241;47.830;12.972;2023-05-10T00:13:48;14.30;99.90
10390;DHT22;5241;47.830;12.972;2023-05-10T00:16:13;14.30;99.90
10390;DHT22;5241;47.830;12.972;2023-05-10T00:18:39;14.20;99.90
10390;DHT22;5241;47.830;12.972;2023-05-10T00:21:05;14.20;99.90
10390;DHT22;5241;47.830;12.972;2023-05-10T00:23:31;14.20;99.90
10390;DHT22;5241;47.830;12.972;2023-05-10T00:25:57;14.30;99.90
10390;DHT22;5241;47.830;12.972;2023-05-10T00:28:23;14.30;99.90
10390;DHT22;5241;47.830;12.972;2023-05-10T00:30:48;14.30;99.90
10390;DHT22;5241;47.830;12.972;2023-05-10T00:33:14;14.40;99.90
10390;DHT22;5241;47.830;12.972;2023-05-10T00:35:49;14.40;99.90
10390;DHT22;5241;47.830;12.972;2023-05-10T00:38:15;14.40;99.90
10390;DHT22;5241;47.830;12.972;2023-05-10T00:40:41;14.50;99.90
10390;DHT22;5241;47.830;12.972;2023-05-10T00:43:06;14.50;99.90
10390;DHT22;5241;47.830;12.972;2023-05-10T00:45:32;14.50;99.90
10390;DHT22;5241;47.830;12.972;2023-05-10T00:48:00;14.50;99.90
10390;DHT22;5241;47.830;12.972;2023-05-10T00:50:27;14.50;99.90
10390;DHT22;5241;47.830;12.972;2023-05-10T00:52:53;14.50;99.90
10390;DHT22;5241;47.830;12.972;2023-05-10T00:55:19;14.60;99.90
10390;DHT22;5241;47.830;12.972;2023-05-10T00:57:45;14.60;99.90
10390;DHT22;5241;47.830;12.972;2023-05-10T01:00:12;14.70;99.90
10390;DHT22;5241;47.830;12.972;2023-05-10T01:02:38;14.70;99.90
10390;DHT22;5241;47.830;12.972;2023-05-10T01:05:04;14.70;99.90
10390;DHT22;5241;47.830;12.972;2023-05-10T01:07:30;14.70;99.90
10390;DHT22;5241;47.830;12.972;2023-05-10T01:09:56;14.70;99.90
10390;DHT22;5241;47.830;12.972;2023-05-10T01:12:22;14.70;99.90
10390;DHT22;5241;47.830;12.972;2023-05-10T01:14:48;14.70;99.90
10390;DHT22;5241;47.830;12.972;2023-05-10T01:17:14;14.70;99.90
10390;DHT22;5241;47.830;12.972;2023-05-10T01:19:41;14.70;99.90
10390;DHT22;5241;47.830;12.972;2023-05-10T01:22:29;14.70;99.90
10390;DHT22;5241;47.830;12.972;2023-05-10T01:33:29;14.50;99.90
10390;DHT22;5241;47.830;12.972;2023-05-10T01:36:05;14.40;99.90
10390;DHT22;5241;47.830;12.972;2023-05-10T01:39:20;14.30;99.90
10390;DHT22;5241;47.830;12.972;2023-05-10T01:44:37;14.10;99.90
10390;DHT22;5241;47.830;12.972;2023-05-10T01:47:15;14.00;99.90
10390;DHT22;5241;47.830;12.972;2023-05-10T01:49:49;13.80;99.90
10390;DHT22;5241;47.830;12.972;2023-05-10T01:52:18;13.80;99.90
10390;DHT22;5241;47.830;12.972;2023-05-10T01:54:55;13.70;99.90
10390;DHT22;5241;47.830;12.972;2023-05-10T01:57:22;13.60;99.90
10390;DHT22;5241;47.830;12.972;2023-05-10T01:59:50;13.50;99.90
10390;DHT22;5241;47.830;12.972;2023-05-10T02:02:21;13.50;99.90
10390;DHT22;5241;47.830;12.972;2023-05-10T02:04:50;13.40;99.90
10390;DHT22;5241;47.830;12.972;2023-05-10T02:07:18;13.40;99.90
10390;DHT22;5241;47.830;12.972;2023-05-10T02:09:45;13.40;99.90
10390;DHT22;5241;47.830;12.972;2023-05-10T02:12:15;13.40;99.90
10390;DHT22;5241;47.830;12.972;2023-05-10T02:14:41;13.40;99.90
10390;DHT22;5241;47.830;12.972;2023-05-10T02:17:08;13.40;99.90
10390;DHT22;5241;47.830;12.972;2023-05-10T02:19:37;13.40;99.90
10390;DHT22;5241;47.830;12.972;2023-05-10T02:22:04;13.50;99.90
10390;DHT22;5241;47.830;12.972;2023-05-10T02:24:32;13.60;99.90
10390;DHT22;5241;47.830;12.972;2023-05-10T02:26:58;13.60;99.90
10390;DHT22;5241;47.830;12.972;2023-05-10T02:29:26;13.60;99.90
10390;DHT22;5241;47.830;12.972;2023-05-10T02:31:53;13.60;99.90
10390;DHT22;5241;47.830;12.972;2023-05-10T02:34:20;13.50;99.90
10390;DHT22;5241;47.830;12.972;2023-05-10T02:36:47;13.50;99.90
10390;DHT22;5241;47.830;12.972;2023-05-10T02:39:14;13.40;99.90
10390;DHT22;5241;47.830;12.972;2023-05-10T02:41:42;13.40;99.90
10390;DHT22;5241;47.830;12.972;2023-05-10T02:44:08;13.40;99.90
10390;DHT22;5241;47.830;12.972;2023-05-10T02:46:35;13.50;99.90
10390;DHT22;5241;47.830;12.972;2023-05-10T02:49:02;13.50;99.90
10390;DHT22;5241;47.830;12.972;2023-05-10T02:51:31;13.50;99.90
10390;DHT22;5241;47.830;12.972;2023-05-10T02:54:06;13.40;99.90
10390;DHT22;5241;47.830;12.972;2023-05-10T02:56:35;13.40;99.90
10390;DHT22;5241;47.830;12.972;2023-05-10T02:59:01;13.40;99.90
10390;DHT22;5241;47.830;12.972;2023-05-10T03:01:27;13.30;99.90
10390;DHT22;5241;47.830;12.972;2023-05-10T03:03:53;13.30;99.90
10390;DHT22;5241;47.830;12.972;2023-05-10T03:06:18;13.30;99.90
10390;DHT22;5241;47.830;12.972;2023-05-10T03:08:44;13.20;99.90
10390;DHT22;5241;47.830;12.972;2023-05-10T03:13:54;13.20;99.90
10390;DHT22;5241;47.830;12.972;2023-05-10T03:16:38;13.20;99.90
10390;DHT22;5241;47.830;12.972;2023-05-10T03:19:22;13.20;99.90
10390;DHT22;5241;47.830;12.972;2023-05-10T03:21:52;13.20;99.90
10390;DHT22;5241;47.830;12.972;2023-05-10T03:24:20;13.30;99.90
10390;DHT22;5241;47.830;12.972;2023-05-10T03:26:47;13.20;99.90
10390;DHT22;5241;47.830;12.972;2023-05-10T03:29:14;13.20;99.90
10390;DHT22;5241;47.830;12.972;2023-05-10T03:31:41;13.20;99.90
10390;DHT22;5241;47.830;12.972;2023-05-10T03:34:07;13.20;99.90
10390;DHT22;5241;47.830;12.972;2023-05-10T03:36:32;13.20;99.90
10390;DHT22;5241;47.830;12.972;2023-05-10T03:38:58;13.20;99.90
10390;DHT22;5241;47.830;12.972;2023-05-10T03:41:24;13.20;99.90
10390;DHT22;5241;47.830;12.972;2023-05-10T03:43:50;13.20;99.90
10390;DHT22;5241;47.830;12.972;2023-05-10T03:46:16;13.20;99.90
10390;DHT22;5241;47.830;12.972;2023-05-10T03:48:42;13.20;99.90
10390;DHT22;5241;47.830;12.972;2023-05-10T03:51:07;13.20;99.90
10390;DHT22;5241;47.830;12.972;2023-05-10T03:53:33;13.20;99.90
10390;DHT22;5241;47.830;12.972;2023-05-10T03:55:58;13.20;99.90
10390;DHT22;5241;47.830;12.972;2023-05-10T03:58:24;13.10;99.90
10390;DHT22;5241;47.830;12.972;2023-05-10T04:00:51;13.20;99.90
10390;DHT22;5241;47.830;12.972;2023-05-10T04:03:16;13.20;99.90
10390;DHT22;5241;47.830;12.972;2023-05-10T04:05:43;13.20;99.90
10390;DHT22;5241;47.830;12.972;2023-05-10T04:08:08;13.20;99.90
10390;DHT22;5241;47.830;12.972;2023-05-10T04:10:34;13.20;99.90
10390;DHT22;5241;47.830;12.972;2023-05-10T04:12:59;13.20;99.90
10390;DHT22;5241;47.830;12.972;2023-05-10T04:15:25;13.20;99.90
10390;DHT22;5241;47.830;12.972;2023-05-10T04:17:51;13.20;99.90
10390;DHT22;5241;47.830;12.972;2023-05-10T04:20:16;13.20;99.90
10390;DHT22;5241;47.830;12.972;2023-05-10T04:22:42;13.20;99.90
10390;DHT22;5241;47.830;12.972;2023-05-10T04:25:08;13.20;99.90
10390;DHT22;5241;47.830;12.972;2023-05-10T04:27:34;13.20;99.90
10390;DHT22;5241;47.830;12.972;2023-05-10T04:29:59;13.30;99.90
10390;DHT22;5241;47.830;12.972;2023-05-10T04:32:25;13.20;99.90
10390;DHT22;5241;47.830;12.972;2023-05-10T04:34:50;13.30;99.90
10390;DHT22;5241;47.830;12.972;2023-05-10T04:37:17;13.30;99.90
10390;DHT22;5241;47.830;12.972;2023-05-10T04:39:43;13.30;99.90
10390;DHT22;5241;47.830;12.972;2023-05-10T04:42:08;13.30;99.90
10390;DHT22;5241;47.830;12.972;2023-05-10T04:44:34;13.30;99.90
10390;DHT22;5241;47.830;12.972;2023-05-10T04:47:00;13.30;99.90
10390;DHT22;5241;47.830;12.972;2023-05-10T04:49:27;13.30;99.90
10390;DHT22;5241;47.830;12.972;2023-05-10T04:51:53;13.30;99.90
10390;DHT22;5241;47.830;12.972;2023-05-10T04:54:18;13.30;99.90
10390;DHT22;5241;47.830;12.972;2023-05-10T04:56:44;13.30;99.90
10390;DHT22;5241;47.830;12.972;2023-05-10T04:59:09;13.30;99.90
10390;DHT22;5241;47.830;12.972;2023-05-10T05:01:35;13.30;99.90
10390;DHT22;5241;47.830;12.972;2023-05-10T05:04:01;13.30;99.90
10390;DHT22;5241;47.830;12.972;2023-05-10T05:06:27;13.30;99.90
10390;DHT22;5241;47.830;12.972;2023-05-10T05:08:52;13.30;99.90
10390;DHT22;5241;47.830;12.972;2023-05-10T05:11:21;13.30;99.90
10390;DHT22;5241;47.830;12.972;2023-05-10T05:13:49;13.20;99.90
10390;DHT22;5241;47.830;12.972;2023-05-10T05:16:15;13.20;99.90
10390;DHT22;5241;47.830;12.972;2023-05-10T05:18:40;13.20;99.90
10390;DHT22;5241;47.830;12.972;2023-05-10T05:21:16;13.20;99.90
10390;DHT22;5241;47.830;12.972;2023-05-10T05:23:42;13.20;99.90
10390;DHT22;5241;47.830;12.972;2023-05-10T05:26:08;13.30;99.90
10390;DHT22;5241;47.830;12.972;2023-05-10T05:28:33;13.30;99.90
10390;DHT22;5241;47.830;12.972;2023-05-10T05:31:05;13.30;99.90
10390;DHT22;5241;47.830;12.972;2023-05-10T05:33:31;13.30;99.90
10390;DHT22;5241;47.830;12.972;2023-05-10T05:35:56;13.40;99.90
10390;DHT22;5241;47.830;12.972;2023-05-10T05:38:22;13.40;99.90
10390;DHT22;5241;47.830;12.972;2023-05-10T05:40:47;13.40;99.90
10390;DHT22;5241;47.830;12.972;2023-05-10T05:43:13;13.40;99.90
10390;DHT22;5241;47.830;12.972;2023-05-10T05:45:38;13.40;99.90
10390;DHT22;5241;47.830;12.972;2023-05-10T05:48:04;13.40;99.90
10390;DHT22;5241;47.830;12.972;2023-05-10T05:50:30;13.40;99.90
10390;DHT22;5241;47.830;12.972;2023-05-10T05:52:56;13.40;99.90
10390;DHT22;5241;47.830;12.972;2023-05-10T05:55:22;13.40;99.90
10390;DHT22;5241;47.830;12.972;2023-05-10T05:57:49;13.50;99.90
10390;DHT22;5241;47.830;12.972;2023-05-10T06:00:15;13.50;99.90
10390;DHT22;5241;47.830;12.972;2023-05-10T06:02:40;13.50;99.90
10390;DHT22;5241;47.830;12.972;2023-05-10T06:05:06;13.60;99.90
10390;DHT22;5241;47.830;12.972;2023-05-10T06:07:32;13.60;99.90
10390;DHT22;5241;47.830;12.972;2023-05-10T06:09:57;13.60;99.90
10390;DHT22;5241;47.830;12.972;2023-05-10T06:12:23;13.70;99.90
10390;DHT22;5241;47.830;12.972;2023-05-10T06:14:48;13.70;99.90
10390;DHT22;5241;47.830;12.972;2023-05-10T06:17:14;13.70;99.90
10390;DHT22;5241;47.830;12.972;2023-05-10T06:19:39;13.70;99.90
10390;DHT22;5241;47.830;12.972;2023-05-10T06:22:05;13.70;99.90
10390;DHT22;5241;47.830;12.972;2023-05-10T06:24:30;13.60;99.90
10390;DHT22;5241;47.830;12.972;2023-05-10T06:26:56;13.60;99.90
10390;DHT22;5241;47.830;12.972;2023-05-10T06:29:22;13.60;99.90
10390;DHT22;5241;47.830;12.972;2023-05-10T06:31:47;13.60;99.90
10390;DHT22;5241;47.830;12.972;2023-05-10T06:34:13;13.70;99.90
10390;DHT22;5241;47.830;12.972;2023-05-10T06:36:39;13.70;99.90
10390;DHT22;5241;47.830;12.972;2023-05-10T06:39:04;13.80;99.90
10390;DHT22;5241;47.830;12.972;2023-05-10T06:41:30;13.90;99.90
10390;DHT22;5241;47.830;12.972;2023-05-10T06:43:56;14.00;99.90
10390;DHT22;5241;47.830;12.972;2023-05-10T06:46:21;13.90;99.90
10390;DHT22;5241;47.830;12.972;2023-05-10T06:48:50;14.00;99.90
10390;DHT22;5241;47.830;12.972;2023-05-10T06:51:16;14.00;99.90
10390;DHT22;5241;47.830;12.972;2023-05-10T06:53:49;14.00;99.90
10390;DHT22;5241;47.830;12.972;2023-05-10T06:56:14;14.00;99.90
10390;DHT22;5241;47.830;12.972;2023-05-10T06:58:40;14.00;99.90
10390;DHT22;5241;47.830;12.972;2023-05-10T07:01:05;14.00;99.90
10390;DHT22;5241;47.830;12.972;2023-05-10T07:03:31;13.90;99.90
10390;DHT22;5241;47.830;12.972;2023-05-10T07:06:03;13.80;99.90
10390;DHT22;5241;47.830;12.972;2023-05-10T07:08:31;13.70;99.90
10390;DHT22;5241;47.830;12.972;2023-05-10T07:11:03;13.70;99.90
10390;DHT22;5241;47.830;12.972;2023-05-10T07:13:30;13.80;99.90
10390;DHT22;5241;47.830;12.972;2023-05-10T07:15:56;13.70;99.90
10390;DHT22;5241;47.830;12.972;2023-05-10T07:18:22;13.60;99.90
10390;DHT22;5241;47.830;12.972;2023-05-10T07:20:47;13.60;99.90
10390;DHT22;5241;47.830;12.972;2023-05-10T07:23:13;13.50;99.90
10390;DHT22;5241;47.830;12.972;2023-05-10T07:25:38;13.50;99.90
10390;DHT22;5241;47.830;12.972;2023-05-10T07:28:04;13.50;99.90
10390;DHT22;5241;47.830;12.972;2023-05-10T07:30:29;13.40;99.90
10390;DHT22;5241;47.830;12.972;2023-05-10T07:32:55;13.30;99.90
10390;DHT22;5241;47.830;12.972;2023-05-10T07:35:21;13.30;99.90
10390;DHT22;5241;47.830;12.972;2023-05-10T07:37:46;13.30;99.90
10390;DHT22;5241;47.830;12.972;2023-05-10T07:40:12;13.30;99.90
10390;DHT22;5241;47.830;12.972;2023-05-10T07:42:38;13.40;99.90
10390;DHT22;5241;47.830;12.972;2023-05-10T07:45:03;13.40;99.90
10390;DHT22;5241;47.830;12.972;2023-05-10T07:47:29;13.30;99.90
10390;DHT22;5241;47.830;12.972;2023-05-10T07:49:55;13.20;99.90
10390;DHT22;5241;47.830;12.972;2023-05-10T07:52:20;13.20;99.90
10390;DHT22;5241;47.830;12.972;2023-05-10T07:54:46;13.20;99.90
10390;DHT22;5241;47.830;12.972;2023-05-10T07:57:11;13.30;99.90
10390;DHT22;5241;47.830;12.972;2023-05-10T07:59:39;13.40;99.90
10390;DHT22;5241;47.830;12.972;2023-05-10T08:02:06;13.30;99.90
10390;DHT22;5241;47.830;12.972;2023-05-10T08:04:31;13.20;99.90
10390;DHT22;5241;47.830;12.972;2023-05-10T08:06:57;13.10;99.90
10390;DHT22;5241;47.830;12.972;2023-05-10T08:09:22;13.10;99.90
10390;DHT22;5241;47.830;12.972;2023-05-10T08:11:49;13.00;99.90
10390;DHT22;5241;47.830;12.972;2023-05-10T08:14:15;12.90;99.90
10390;DHT22;5241;47.830;12.972;2023-05-10T08:16:40;12.80;99.90
10390;DHT22;5241;47.830;12.972;2023-05-10T08:19:06;12.80;99.90
10390;DHT22;5241;47.830;12.972;2023-05-10T08:21:32;12.90;99.90
10390;DHT22;5241;47.830;12.972;2023-05-10T08:23:57;13.00;99.90
10390;DHT22;5241;47.830;12.972;2023-05-10T08:26:23;13.00;99.90
10390;DHT22;5241;47.830;12.972;2023-05-10T08:28:48;13.10;99.90
10390;DHT22;5241;47.830;12.972;2023-05-10T08:31:14;13.20;99.90
10390;DHT22;5241;47.830;12.972;2023-05-10T08:33:40;13.20;99.90
10390;DHT22;5241;47.830;12.972;2023-05-10T08:36:06;13.20;99.90
10390;DHT22;5241;47.830;12.972;2023-05-10T08:38:32;13.20;99.90
10390;DHT22;5241;47.830;12.972;2023-05-10T08:40:58;13.20;99.90
10390;DHT22;5241;47.830;12.972;2023-05-10T08:43:27;13.30;99.90
10390;DHT22;5241;47.830;12.972;2023-05-10T08:45:54;13.30;99.90
10390;DHT22;5241;47.830;12.972;2023-05-10T08:48:23;13.40;99.90
10390;DHT22;5241;47.830;12.972;2023-05-10T08:50:53;13.60;99.90
10390;DHT22;5241;47.830;12.972;2023-05-10T08:53:20;13.60;99.90
10390;DHT22;5241;47.830;12.972;2023-05-10T08:55:46;13.80;99.90
10390;DHT22;5241;47.830;12.972;2023-05-10T08:58:12;13.50;99.90
10390;DHT22;5241;47.830;12.972;2023-05-10T09:00:37;13.40;99.90
10390;DHT22;5241;47.830;12.972;2023-05-10T09:03:04;13.50;99.90
10390;DHT22;5241;47.830;12.972;2023-05-10T09:05:30;13.70;99.90
10390;DHT22;5241;47.830;12.972;2023-05-10T09:07:55;13.60;99.90
10390;DHT22;5241;47.830;12.972;2023-05-10T09:10:21;13.60;99.90
10390;DHT22;5241;47.830;12.972;2023-05-10T09:12:48;13.60;99.90
10390;DHT22;5241;47.830;12.972;2023-05-10T09:15:17;13.60;99.90
10390;DHT22;5241;47.830;12.972;2023-05-10T09:17:44;13.70;99.90
10390;DHT22;5241;47.830;12.972;2023-05-10T09:20:10;13.50;99.90
10390;DHT22;5241;47.830;12.972;2023-05-10T09:22:36;13.50;99.90
10390;DHT22;5241;47.830;12.972;2023-05-10T09:25:29;13.60;99.90
10390;DHT22;5241;47.830;12.972;2023-05-10T09:27:55;13.60;99.90
10390;DHT22;5241;47.830;12.972;2023-05-10T09:30:28;13.40;99.90
10390;DHT22;5241;47.830;12.972;2023-05-10T09:32:56;13.50;99.90
10390;DHT22;5241;47.830;12.972;2023-05-10T09:35:24;13.60;99.90
10390;DHT22;5241;47.830;12.972;2023-05-10T09:37:51;14.00;99.90
10390;DHT22;5241;47.830;12.972;2023-05-10T09:40:19;14.30;99.90
10390;DHT22;5241;47.830;12.972;2023-05-10T09:42:59;14.50;99.90
10390;DHT22;5241;47.830;12.972;2023-05-10T09:45:30;14.60;99.90
10390;DHT22;5241;47.830;12.972;2023-05-10T09:47:57;14.70;99.90
10390;DHT22;5241;47.830;12.972;2023-05-10T09:50:23;14.80;99.90
10390;DHT22;5241;47.830;12.972;2023-05-10T09:52:52;14.70;99.90
10390;DHT22;5241;47.830;12.972;2023-05-10T09:55:20;14.70;99.90
10390;DHT22;5241;47.830;12.972;2023-05-10T09:57:46;14.90;99.90
10390;DHT22;5241;47.830;12.972;2023-05-10T10:00:22;15.10;99.90
10390;DHT22;5241;47.830;12.972;2023-05-10T10:02:54;15.20;99.90
10390;DHT22;5241;47.830;12.972;2023-05-10T10:05:20;15.30;99.90
10390;DHT22;5241;47.830;12.972;2023-05-10T10:07:45;15.50;99.90
10390;DHT22;5241;47.830;12.972;2023-05-10T10:10:11;15.50;99.90
10390;DHT22;5241;47.830;12.972;2023-05-10T10:12:39;15.50;99.90
10390;DHT22;5241;47.830;12.972;2023-05-10T10:15:07;15.50;99.90
10390;DHT22;5241;47.830;12.972;2023-05-10T10:17:35;15.70;99.90
10390;DHT22;5241;47.830;12.972;2023-05-10T10:20:03;15.80;99.90
10390;DHT22;5241;47.830;12.972;2023-05-10T10:22:29;15.60;99.90
10390;DHT22;5241;47.830;12.972;2023-05-10T10:24:55;15.60;99.90
10390;DHT22;5241;47.830;12.972;2023-05-10T10:27:28;15.70;99.90
10390;DHT22;5241;47.830;12.972;2023-05-10T10:33:11;15.60;99.90
10390;DHT22;5241;47.830;12.972;2023-05-10T10:35:39;15.60;99.90
10390;DHT22;5241;47.830;12.972;2023-05-10T10:38:07;15.60;99.90
10390;DHT22;5241;47.830;12.972;2023-05-10T10:40:34;15.70;99.90
10390;DHT22;5241;47.830;12.972;2023-05-10T10:43:22;15.80;99.90
10390;DHT22;5241;47.830;12.972;2023-05-10T10:46:12;15.90;99.90
10390;DHT22;5241;47.830;12.972;2023-05-10T10:48:47;15.80;99.90
10390;DHT22;5241;47.830;12.972;2023-05-10T10:51:14;15.70;99.90
10390;DHT22;5241;47.830;12.972;2023-05-10T10:53:40;15.60;99.90
10390;DHT22;5241;47.830;12.972;2023-05-10T10:56:08;15.60;99.90
10390;DHT22;5241;47.830;12.972;2023-05-10T10:58:35;15.70;99.90
10390;DHT22;5241;47.830;12.972;2023-05-10T11:03:36;15.70;99.90
10390;DHT22;5241;47.830;12.972;2023-05-10T11:06:01;15.70;99.90
10390;DHT22;5241;47.830;12.972;2023-05-10T11:08:29;15.70;99.90
10390;DHT22;5241;47.830;12.972;2023-05-10T11:13:43;16.20;99.90
10390;DHT22;5241;47.830;12.972;2023-05-10T11:16:12;16.40;99.90
10390;DHT22;5241;47.830;12.972;2023-05-10T11:18:38;16.70;99.90
10390;DHT22;5241;47.830;12.972;2023-05-10T11:21:04;16.50;99.90
10390;DHT22;5241;47.830;12.972;2023-05-10T11:26:12;16.70;99.90
10390;DHT22;5241;47.830;12.972;2023-05-10T11:28:47;16.60;99.90
10390;DHT22;5241;47.830;12.972;2023-05-10T11:31:17;17.00;99.90
10390;DHT22;5241;47.830;12.972;2023-05-10T11:33:48;17.10;99.90
10390;DHT22;5241;47.830;12.972;2023-05-10T11:36:15;17.00;99.90
10390;DHT22;5241;47.830;12.972;2023-05-10T11:38:41;16.90;99.90
10390;DHT22;5241;47.830;12.972;2023-05-10T11:41:11;16.90;99.90
10390;DHT22;5241;47.830;12.972;2023-05-10T11:43:39;16.90;99.90
10390;DHT22;5241;47.830;12.972;2023-05-10T11:46:11;17.00;99.90
10390;DHT22;5241;47.830;12.972;2023-05-10T11:48:38;17.20;99.90
10390;DHT22;5241;47.830;12.972;2023-05-10T11:51:04;17.20;99.90
10390;DHT22;5241;47.830;12.972;2023-05-10T11:53:32;17.00;99.90
10390;DHT22;5241;47.830;12.972;2023-05-10T11:56:10;16.50;99.90
10390;DHT22;5241;47.830;12.972;2023-05-10T11:58:37;16.90;99.90
10390;DHT22;5241;47.830;12.972;2023-05-10T12:01:04;16.90;99.90
10390;DHT22;5241;47.830;12.972;2023-05-10T12:03:30;16.50;99.90
10390;DHT22;5241;47.830;12.972;2023-05-10T12:05:57;16.30;99.90
10390;DHT22;5241;47.830;12.972;2023-05-10T12:08:25;16.50;99.90
10390;DHT22;5241;47.830;12.972;2023-05-10T12:10:54;16.80;99.90
10390;DHT22;5241;47.830;12.972;2023-05-10T12:13:28;17.00;99.90
10390;DHT22;5241;47.830;12.972;2023-05-10T12:15:57;17.10;99.90
10390;DHT22;5241;47.830;12.972;2023-05-10T12:18:24;17.30;99.90
10390;DHT22;5241;47.830;12.972;2023-05-10T12:20:52;17.30;99.90
10390;DHT22;5241;47.830;12.972;2023-05-10T12:23:20;17.00;99.90
10390;DHT22;5241;47.830;12.972;2023-05-10T12:25:45;17.00;99.90
10390;DHT22;5241;47.830;12.972;2023-05-10T12:28:11;17.20;99.90
10390;DHT22;5241;47.830;12.972;2023-05-10T12:30:37;17.70;99.90
10390;DHT22;5241;47.830;12.972;2023-05-10T12:33:14;18.00;99.90
10390;DHT22;5241;47.830;12.972;2023-05-10T12:35:52;17.80;99.90
10390;DHT22;5241;47.830;12.972;2023-05-10T12:40:58;17.90;99.90
10390;DHT22;5241;47.830;12.972;2023-05-10T12:43:24;18.00;99.90
10390;DHT22;5241;47.830;12.972;2023-05-10T12:45:50;18.00;99.90
10390;DHT22;5241;47.830;12.972;2023-05-10T12:48:16;18.00;99.90
10390;DHT22;5241;47.830;12.972;2023-05-10T12:50:41;18.20;99.90
10390;DHT22;5241;47.830;12.972;2023-05-10T12:53:07;18.20;99.90
10390;DHT22;5241;47.830;12.972;2023-05-10T12:55:32;18.10;99.90
10390;DHT22;5241;47.830;12.972;2023-05-10T12:57:58;18.10;99.90
10390;DHT22;5241;47.830;12.972;2023-05-10T13:00:23;17.70;99.90
10390;DHT22;5241;47.830;12.972;2023-05-10T13:02:49;17.80;99.90
10390;DHT22;5241;47.830;12.972;2023-05-10T13:05:15;17.80;99.90
10390;DHT22;5241;47.830;12.972;2023-05-10T13:07:40;17.60;99.90
10390;DHT22;5241;47.830;12.972;2023-05-10T13:10:06;17.40;99.90
10390;DHT22;5241;47.830;12.972;2023-05-10T13:12:32;17.20;99.90
10390;DHT22;5241;47.830;12.972;2023-05-10T13:14:58;17.00;99.90
10390;DHT22;5241;47.830;12.972;2023-05-10T13:17:25;16.90;99.90
10390;DHT22;5241;47.830;12.972;2023-05-10T13:19:50;16.90;99.90
10390;DHT22;5241;47.830;12.972;2023-05-10T13:22:16;17.00;99.90
10390;DHT22;5241;47.830;12.972;2023-05-10T13:24:42;17.00;99.90
10390;DHT22;5241;47.830;12.972;2023-05-10T13:27:07;17.00;99.90
10390;DHT22;5241;47.830;12.972;2023-05-10T13:29:33;16.90;99.90
10390;DHT22;5241;47.830;12.972;2023-05-10T13:31:58;16.90;99.90
10390;DHT22;5241;47.830;12.972;2023-05-10T13:34:24;16.80;99.90
10390;DHT22;5241;47.830;12.972;2023-05-10T13:36:50;16.70;99.90
10390;DHT22;5241;47.830;12.972;2023-05-10T13:39:16;16.60;99.90
10390;DHT22;5241;47.830;12.972;2023-05-10T13:41:42;16.50;99.90
10390;DHT22;5241;47.830;12.972;2023-05-10T13:44:07;16.50;99.90
10390;DHT22;5241;47.830;12.972;2023-05-10T13:46:33;16.50;99.90
10390;DHT22;5241;47.830;12.972;2023-05-10T13:48:58;16.60;99.90
10390;DHT22;5241;47.830;12.972;2023-05-10T13:51:24;16.50;99.90
10390;DHT22;5241;47.830;12.972;2023-05-10T13:53:50;16.40;99.90
10390;DHT22;5241;47.830;12.972;2023-05-10T13:56:15;16.20;99.90
10390;DHT22;5241;47.830;12.972;2023-05-10T13:58:41;15.90;99.90
10390;DHT22;5241;47.830;12.972;2023-05-10T14:01:06;15.40;99.90
10390;DHT22;5241;47.830;12.972;2023-05-10T14:03:32;15.00;99.90
10390;DHT22;5241;47.830;12.972;2023-05-10T14:05:58;14.50;99.90
10390;DHT22;5241;47.830;12.972;2023-05-10T14:08:24;14.10;99.90
10390;DHT22;5241;47.830;12.972;2023-05-10T14:10:49;13.80;99.90
10390;DHT22;5241;47.830;12.972;2023-05-10T14:13:16;13.60;99.90
10390;DHT22;5241;47.830;12.972;2023-05-10T14:15:41;13.40;99.90
10390;DHT22;5241;47.830;12.972;2023-05-10T14:18:07;13.30;99.90
10390;DHT22;5241;47.830;12.972;2023-05-10T14:20:32;13.20;99.90
10390;DHT22;5241;47.830;12.972;2023-05-10T14:22:59;13.10;99.90
10390;DHT22;5241;47.830;12.972;2023-05-10T14:25:25;13.10;99.90
10390;DHT22;5241;47.830;12.972;2023-05-10T14:27:51;13.10;99.90
10390;DHT22;5241;47.830;12.972;2023-05-10T14:30:16;13.10;99.90
10390;DHT22;5241;47.830;12.972;2023-05-10T14:32:42;13.20;99.90
10390;DHT22;5241;47.830;12.972;2023-05-10T14:35:08;13.20;99.90
10390;DHT22;5241;47.830;12.972;2023-05-10T14:37:34;13.20;99.90
10390;DHT22;5241;47.830;12.972;2023-05-10T14:39:59;13.20;99.90
10390;DHT22;5241;47.830;12.972;2023-05-10T14:42:25;13.20;99.90
10390;DHT22;5241;47.830;12.972;2023-05-10T14:44:51;13.30;99.90
10390;DHT22;5241;47.830;12.972;2023-05-10T14:47:16;13.30;99.90
10390;DHT22;5241;47.830;12.972;2023-05-10T14:49:42;13.30;99.90
10390;DHT22;5241;47.830;12.972;2023-05-10T14:52:07;13.20;99.90
10390;DHT22;5241;47.830;12.972;2023-05-10T14:54:33;13.20;99.90
10390;DHT22;5241;47.830;12.972;2023-05-10T14:56:59;13.20;99.90
10390;DHT22;5241;47.830;12.972;2023-05-10T14:59:25;13.20;99.90
10390;DHT22;5241;47.830;12.972;2023-05-10T15:01:51;13.20;99.90
10390;DHT22;5241;47.830;12.972;2023-05-10T15:04:16;13.20;99.90
10390;DHT22;5241;47.830;12.972;2023-05-10T15:06:42;13.20;99.90
10390;DHT22;5241;47.830;12.972;2023-05-10T15:09:07;13.10;99.90
10390;DHT22;5241;47.830;12.972;2023-05-10T15:11:34;13.20;99.90
10390;DHT22;5241;47.830;12.972;2023-05-10T15:14:00;13.20;99.90
10390;DHT22;5241;47.830;12.972;2023-05-10T15:16:27;13.20;99.90
10390;DHT22;5241;47.830;12.972;2023-05-10T15:18:52;13.30;99.90
10390;DHT22;5241;47.830;12.972;2023-05-10T15:21:18;13.40;99.90
10390;DHT22;5241;47.830;12.972;2023-05-10T15:23:43;13.40;99.90
10390;DHT22;5241;47.830;12.972;2023-05-10T15:26:09;13.40;99.90
10390;DHT22;5241;47.830;12.972;2023-05-10T15:28:35;13.40;99.90
10390;DHT22;5241;47.830;12.972;2023-05-10T15:31:00;13.40;99.90
10390;DHT22;5241;47.830;12.972;2023-05-10T15:33:26;13.60;99.90
10390;DHT22;5241;47.830;12.972;2023-05-10T15:35:52;13.70;99.90
10390;DHT22;5241;47.830;12.972;2023-05-10T15:38:19;13.70;99.90
10390;DHT22;5241;47.830;12.972;2023-05-10T15:40:44;13.70;99.90
10390;DHT22;5241;47.830;12.972;2023-05-10T15:43:10;13.60;99.90
10390;DHT22;5241;47.830;12.972;2023-05-10T15:45:35;13.60;99.90
10390;DHT22;5241;47.830;12.972;2023-05-10T15:48:01;13.60;99.90
10390;DHT22;5241;47.830;12.972;2023-05-10T15:50:27;13.60;99.90
10390;DHT22;5241;47.830;12.972;2023-05-10T15:52:53;13.60;99.90
10390;DHT22;5241;47.830;12.972;2023-05-10T15:55:19;13.60;99.90
10390;DHT22;5241;47.830;12.972;2023-05-10T15:57:44;13.70;99.90